Tiempo atmosférico en la estación meteorológica de Garrucha, Puerto, Almería (12 m.)



Fecha
DESCASC
Temp. máxima en grados centígrados (hora)
DESCASC
Temp. mínima en grados centígrados (hora)
DESCASC
Temp. media en grados centígrados
DESCASC
Racha de viento máxima en m/sg (hora)
DESCASC
Velocidad máxima media en intervalos de 10 minutos(hora)
DESCASC
Precipitaciones diarias en mm
DESCASC
Precipitaciones de 00:00 a 06:00 en mm
DESCASC
Precipitaciones de 06:00 a 12:00 en mm
DESCASC
Precipitaciones de 12:00 a 18:00 en mm
DESCASC
Precipitaciones de 18:00 a 24:00 en mm
DESCASC
31-05-2020 25.6 (13:10) 15.5 (06:20) 20.6 7.5 (15:10) 5.56 (15:10) 0 0 0 0 0
30-05-2020 23.8 (19:40) 15.8 (07:00) 19.8 7.22 (13:30) 6.11 (13:30) 0 0 0 0 0
29-05-2020 24.2 (16:40) 18.1 (06:20) 21.2 8.33 (04:50) 6.11 (14:20) 0 0 0 0 0
28-05-2020 24.6 (16:10) 19.6 (00:00) 22.1 10 (00:10) 7.22 (18:10) 0 0 0 0 0
27-05-2020 23.9 (11:50) 18.8 (00:00) 21.3 13.61 (18:20) 11.39 (18:10) 0 0 0 0 0
26-05-2020 23.5 (12:00) 18.4 (00:00) 20.9 12.5 (17:20) 10.28 (17:20) 0 0 0 0 0
25-05-2020 24.4 (14:10) 17.8 (00:00) 21.1 11.94 (19:00) 10 (19:50) 0 0 0 0 0
24-05-2020 24 (19:30) 19.1 (00:00) 21.6 11.39 (16:00) 9.72 (16:00) 0 0 0 0 0
23-05-2020 27 (11:10) 18.5 (00:00) 22.8 6.67 (07:20) 4.72 (07:20) 0 0 0 0 0
22-05-2020 24.4 (19:10) 19.4 (00:00) 21.9 6.94 (16:50) 6.11 (16:50) 0 0 0 0 0
21-05-2020 25.1 (19:10) 19.2 (00:00) 22.2 5.83 (13:30) 5 (13:20) 0 0 0 0 0
20-05-2020 24.1 (09:40) 17.8 (00:00) 20.9 5.56 (11:40) 4.72 (15:40) 0 0 0 0 0
19-05-2020 22.4 (19:20) 16.3 (00:00) 19.3 11.39 (17:20) 9.17 (17:20) 0 0 0 0 0
18-05-2020 23.6 (19:00) 15.1 (00:00) 19.4 12.22 (18:30) 9.72 (17:50) 0 0 0 0 0
17-05-2020 19.8 (10:50) 15.1 (00:00) 17.4 8.89 (18:40) 7.5 (20:00) 0 0 0 0 0
16-05-2020 21.1 (11:30) 15.1 (00:00) 18.1 8.06 (17:10) 7.22 (17:00) 0 0 0 0 0
15-05-2020 20.1 (15:40) 15.9 (00:00) 18 7.5 (03:20) 5.28 (03:20) 0 0 0 0 0
14-05-2020 21.8 (19:40) 14.6 (00:00) 18.2 12.5 (19:00) 9.44 (18:20) 4.4 3.2 1.2 0 0
13-05-2020 24.3 (19:20) 13.7 (00:00) 19 13.33 (15:30) 11.67 (15:30) 0 0 0 0 0
12-05-2020 23.2 (19:20) 18.3 (00:00) 20.8 12.5 (21:20) 8.89 (21:20) 0 0 0 0 0
11-05-2020 24.2 (20:30) 15.5 (00:00) 19.9 12.5 (14:50) 10.83 (15:00) 0 0 0 0 0
10-05-2020 23.4 (18:10) 17.9 (00:00) 20.6 15 (09:50) 9.17 (10:20) 0 0 0 0 0
09-05-2020 24.3 (19:20) 18.2 (00:00) 21.3 15 (16:00) 11.39 (16:00) 0 0 0 0 0
08-05-2020 21.8 (16:00) 18.1 (00:00) 19.9 8.89 (14:00) 7.22 (13:30) 0 0 0 0 0
07-05-2020 24.3 (13:10) 17.8 (00:00) 21 10.56 (15:40) 7.5 (15:40) 0 0 0 0 0
06-05-2020 23.4 (19:20) 16.5 (00:00) 19.9 5.56 (11:00) 3.89 (06:40) 0 0 0 0 0
05-05-2020 22.3 (09:30) 18.3 (00:00) 20.3 6.39 (16:30) 5.83 (16:30) 0 0 0 0 0

Gráficas

Temp. máximas Temp. mínimas Temp. medias Precipitaciones Rachas de viento máximas Velocidades máximas media en intervalos de 10 minutos

Datos horarios

Fecha y hora oficial Temperatura (ºC) Velocidad del viento (km/h) Dirección del viento Racha (km/h) Dirección de racha Precipitación (mm) Presión (hPa) Tendencia (hPa) Humedad (%)
2020-06-03 23:00:00 22.2 2 Nordeste 7 Este 0 -- -- 85
2020-06-03 22:00:00 22.4 4 Este 9 Nordeste 0 -- -- 83
2020-06-03 21:00:00 23.6 5 Nordeste 22 Nordeste 0 -- -- 80
2020-06-03 20:00:00 24 15 Nordeste 26 Norte 0 -- -- 77
2020-06-03 19:00:00 25.4 9 Norte 33 Sur 0 -- -- 69
2020-06-03 18:00:00 26.8 21 Sur 45 Sur 0 -- -- 55
2020-06-03 17:00:00 27.8 22 Sudeste 48 Sudeste 0 -- -- 51
2020-06-03 16:00:00 23.5 35 Sudeste 50 Sudeste 0 -- -- 75
2020-06-03 15:00:00 22 37 Sur 49 Sur 0 -- -- 86
2020-06-03 14:00:00 21.5 35 Sur 46 Sur 0 -- -- 87
2020-06-03 13:00:00 21.5 32 Sur 41 Sur 0 -- -- 87
2020-06-03 12:00:00 21.6 21 Sudeste 27 Sudeste 0 -- -- 86
2020-06-03 11:00:00 21.3 8 Este 14 Este 0 -- -- 84
2020-06-03 10:00:00 20.9 9 Este 11 Este 0 -- -- 86
2020-06-03 09:00:00 20.2 2 Noroeste 12 Oeste 0 -- -- 88
2020-06-03 08:00:00 18.2 8 Oeste 13 Oeste 0 -- -- 87
2020-06-03 07:00:00 19 3 Oeste 10 Oeste 0 -- -- 86
2020-06-03 06:00:00 18.3 6 Oeste 9 Oeste 0 -- -- 85
2020-06-03 05:00:00 18.7 5 Oeste 10 Oeste 0 -- -- 86
2020-06-03 04:00:00 18.9 7 Oeste 11 Oeste 0 -- -- 86
2020-06-03 03:00:00 19 5 Oeste 10 Noroeste 0 -- -- 87
2020-06-03 02:00:00 19.2 8 Oeste 9 Oeste 0 -- -- 90
2020-06-03 01:00:00 19.5 4 Sudoeste 12 Sudoeste 0 -- -- 89
2020-06-03 00:00:00 20.5 10 Sur 20 Sudeste 0 -- -- 90
2020-06-02 23:00:00 20.9 18 Sudeste 19 Sudeste 0 -- -- 91
2020-06-02 22:00:00 21.1 9 Sudeste 11 Sudeste 0 -- -- 89
2020-06-02 21:00:00 21.2 7 Sudeste 9 Sudeste 0 -- -- 87
2020-06-02 20:00:00 22.2 6 Sudeste 10 Este 0 -- -- 83
2020-06-02 19:00:00 21.8 9 Sudeste 15 Sudeste 0 -- -- 85
2020-06-02 18:00:00 21.6 14 Sudeste 21 Sudeste 0 -- -- 86
2020-06-02 17:00:00 21.4 18 Sudeste 24 Sudeste 0 -- -- 85
2020-06-02 16:00:00 21.2 21 Sudeste 24 Sudeste 0 -- -- 87
2020-06-02 15:00:00 21.4 21 Sudeste 24 Sudeste 0 -- -- 85
2020-06-02 14:00:00 21.6 19 Sudeste 23 Sudeste 0 -- -- 84
2020-06-02 13:00:00 21.4 19 Sudeste 22 Sudeste 0 -- -- 84
2020-06-02 12:00:00 21.3 14 Sudeste 20 Este 0 -- -- 84
2020-06-02 11:00:00 21.9 15 Este 18 Este 0 -- -- 71
2020-06-02 10:00:00 23.1 3 Norte 12 Noroeste 0 -- -- 50
2020-06-02 09:00:00 19.7 10 Noroeste 15 Oeste 0 -- -- 56
2020-06-02 08:00:00 17.5 12 Oeste 15 Oeste 0 -- -- 58
2020-06-02 07:00:00 17.6 9 Oeste 13 Oeste 0 -- -- 58
2020-06-02 06:00:00 17.5 3 Sur 16 Oeste 0 -- -- 61
2020-06-02 05:00:00 18.1 3 Noroeste 13 Oeste 0 -- -- 65
2020-06-02 04:00:00 18.5 10 Oeste 13 Oeste 0 -- -- 64
2020-06-02 03:00:00 18.6 5 Oeste 10 Oeste 0 -- -- 71
2020-06-02 02:00:00 19 6 Oeste 10 Oeste 0 -- -- 62
2020-06-02 01:00:00 19.3 10 Oeste 13 Oeste 0 -- -- 56
2020-06-02 00:00:00 20 3 Norte 6 Nordeste 0 -- -- 76
2020-06-01 23:00:00 21.3 5 Nordeste 7 Nordeste 0 -- -- 88
2020-06-01 22:00:00 21.3 0 Calma 6 Este 0 -- -- 85
2020-06-01 21:00:00 23 2 Nordeste 7 Este 0 -- -- 79
2020-06-01 20:00:00 23.3 4 Nordeste 7 Nordeste 0 -- -- 78
2020-06-01 19:00:00 22.9 5 Este 12 Este 0 -- -- 78
2020-06-01 18:00:00 23.7 10 Este 13 Este 0 -- -- 75
2020-06-01 17:00:00 23.2 9 Este 14 Este 0 -- -- 77
2020-06-01 16:00:00 22.4 13 Sudeste 16 Sudeste 0 -- -- 81
2020-06-01 15:00:00 22.5 14 Sudeste 18 Sudeste 0 -- -- 79
2020-06-01 14:00:00 22.3 17 Sudeste 20 Sudeste 0 -- -- 78
2020-06-01 13:00:00 22.2 14 Sudeste 19 Sudeste 0 -- -- 74
2020-06-01 12:00:00 22.9 14 Sudeste 17 Este 0 -- -- 68
2020-06-01 11:00:00 25.5 7 Este 9 Este 0 -- -- 55
2020-06-01 10:00:00 24.6 3 Noroeste 15 Oeste 0 -- -- 42
2020-06-01 09:00:00 21.2 11 Noroeste 17 Noroeste 0 -- -- 53
2020-06-01 08:00:00 18.6 15 Noroeste 21 Oeste 0 -- -- 57
2020-06-01 07:00:00 18.5 14 Oeste 19 Oeste 0 -- -- 57
2020-06-01 06:00:00 18.2 13 Noroeste 18 Noroeste 0 -- -- 59
2020-06-01 05:00:00 19.4 12 Noroeste 22 Oeste 0 -- -- 52
2020-06-01 04:00:00 19.5 16 Oeste 21 Oeste 0 -- -- 53
2020-06-01 03:00:00 20.5 12 Oeste 21 Oeste 0 -- -- 52
2020-06-01 02:00:00 20.1 10 Oeste 14 Oeste 0 -- -- 53
2020-06-01 01:00:00 21.2 12 Oeste 18 Oeste 0 -- -- 53
2020-06-01 00:00:00 21.6 5 Sudoeste 9 Sudoeste 0 -- -- 59
2020-05-31 23:00:00 22.4 9 Sudoeste 13 Oeste 0 -- -- 59
2020-05-31 22:00:00 22.6 5 Nordeste 7 Nordeste 0 -- -- 74
2020-05-31 21:00:00 23 4 Sudoeste 13 Oeste 0 -- -- 62
2020-05-31 20:00:00 22.7 3 Oeste 11 Sur 0 -- -- 66
2020-05-31 19:00:00 22.7 6 Sudeste 26 Sur 0 -- -- 71
2020-05-31 18:00:00 22.8 9 Sudeste 17 Este 0 -- -- 73
2020-05-31 17:00:00 23.5 13 Este 17 Nordeste 0 -- -- 70
2020-05-31 16:00:00 24.1 10 Nordeste 27 Nordeste 0 -- -- 71
2020-05-31 15:00:00 23.1 17 Nordeste 26 Nordeste 0 -- -- 69
2020-05-31 14:00:00 23.6 8 Este 12 Este 0 -- -- 64
2020-05-31 13:00:00 25 2 Este 13 Nordeste 0 -- -- 57
2020-05-31 12:00:00 23.9 11 Nordeste 20 Nordeste 0 -- -- 61
2020-05-31 11:00:00 24.4 13 Norte 20 Norte 0 -- -- 41
2020-05-31 10:00:00 23.3 13 Noroeste 20 Noroeste 0 -- -- 38
2020-05-31 09:00:00 18.9 12 Noroeste 23 Oeste 0 -- -- 59
2020-05-31 08:00:00 17.1 16 Noroeste 21 Oeste 0 -- -- 61
2020-05-31 07:00:00 16.7 12 Noroeste 17 Noroeste 0 -- -- 64
2020-05-31 06:00:00 16.2 15 Noroeste 20 Noroeste 0 -- -- 64
2020-05-31 05:00:00 16.9 15 Noroeste 18 Oeste 0 -- -- 59
2020-05-31 04:00:00 17.8 13 Noroeste 18 Oeste 0 -- -- 55
2020-05-31 03:00:00 18.3 10 Oeste 18 Noroeste 0 -- -- 57
2020-05-31 02:00:00 18.5 12 Noroeste 15 Noroeste 0 -- -- 61
2020-05-31 01:00:00 19.1 9 Oeste 13 Oeste 0 -- -- 61
2020-05-31 00:00:00 19.7 9 Oeste 12 Noroeste 0 -- -- 60
2020-05-30 23:00:00 20.5 5 Oeste 8 Nordeste 0 -- -- 62
2020-05-30 22:00:00 21.3 5 Nordeste 13 Norte 0 -- -- 64
2020-05-30 21:00:00 21.5 7 Nordeste 12 Nordeste 0 -- -- 67
2020-05-30 20:00:00 23.2 8 Nordeste 13 Nordeste 0 -- -- 72
2020-05-30 19:00:00 23 9 Nordeste 15 Nordeste 0 -- -- 75
2020-05-30 18:00:00 22.8 14 Nordeste 20 Este 0 -- -- 77
2020-05-30 17:00:00 21.6 15 Este 21 Este 0 -- -- 81
2020-05-30 16:00:00 21.2 18 Este 21 Este 0 -- -- 82
2020-05-30 15:00:00 21.8 17 Este 22 Este 0 -- -- 79
2020-05-30 14:00:00 21.8 19 Este 26 Este 0 -- -- 76
2020-05-30 13:00:00 21.9 20 Este 23 Este 0 -- -- 69
2020-05-30 12:00:00 21.8 16 Este 19 Este 0 -- -- 66
2020-05-30 11:00:00 22.1 10 Este 13 Este 0 -- -- 60
2020-05-30 10:00:00 22.9 5 Nordeste 12 Noroeste 0 -- -- 45
2020-05-30 09:00:00 19.6 9 Noroeste 16 Oeste 0 -- -- 61
2020-05-30 08:00:00 16.9 14 Oeste 18 Oeste 0 -- -- 69
2020-05-30 07:00:00 15.8 10 Noroeste 17 Noroeste 0 -- -- 72
2020-05-30 06:00:00 16.3 13 Noroeste 17 Oeste 0 -- -- 71
2020-05-30 05:00:00 17.2 13 Oeste 16 Oeste 0 -- -- 70
2020-05-30 04:00:00 17.1 13 Noroeste 18 Noroeste 0 -- -- 70
2020-05-30 03:00:00 18.4 8 Oeste 13 Oeste 0 -- -- 63
2020-05-30 02:00:00 18.7 4 Noroeste 11 Sudoeste 0 -- -- 62
2020-05-30 01:00:00 19.2 5 Sudoeste 11 Nordeste 0 -- -- 64
2020-05-30 00:00:00 20.9 5 Nordeste 12 Este 0 -- -- 73
2020-05-29 23:00:00 20.8 4 Sur 9 Sur 0 -- -- 68
2020-05-29 22:00:00 21.3 3 Sudeste 6 Sudeste 0 -- -- 69
2020-05-29 21:00:00 22 5 Sudeste 11 Este 0 -- -- 64
2020-05-29 20:00:00 22.9 10 Este 12 Este 0 -- -- 59
2020-05-29 19:00:00 23.8 5 Este 17 Este 0 -- -- 55
2020-05-29 18:00:00 22.8 13 Este 22 Este 0 -- -- 62
2020-05-29 17:00:00 23.1 12 Este 19 Nordeste 0 -- -- 65
2020-05-29 16:00:00 23.5 9 Nordeste 23 Nordeste 0 -- -- 68
2020-05-29 15:00:00 23.5 18 Este 27 Este 0 -- -- 70
2020-05-29 14:00:00 23 18 Este 22 Este 0 -- -- 69
2020-05-29 13:00:00 23.8 14 Nordeste 21 Nordeste 0 -- -- 62
2020-05-29 12:00:00 23.5 17 Nordeste 24 Nordeste 0 -- -- 59
2020-05-29 11:00:00 24 11 Nordeste 16 Nordeste 0 -- -- 56
2020-05-29 10:00:00 23 9 Norte 20 Noroeste 0 -- -- 40
2020-05-29 09:00:00 20.9 15 Noroeste 22 Noroeste 0 -- -- 49
2020-05-29 08:00:00 18.7 13 Noroeste 22 Noroeste 0 -- -- 55
2020-05-29 07:00:00 18.8 14 Noroeste 22 Noroeste 0 -- -- 53
2020-05-29 06:00:00 18.9 12 Noroeste 24 Noroeste 0 -- -- 55
2020-05-29 05:00:00 19.8 19 Noroeste 30 Noroeste 0 -- -- 53
2020-05-29 04:00:00 19.8 15 Noroeste 25 Norte 0 -- -- 55
2020-05-29 03:00:00 19.9 15 Noroeste 21 Noroeste 0 -- -- 58
2020-05-29 02:00:00 20.7 14 Noroeste 22 Noroeste 0 -- -- 57
2020-05-29 01:00:00 20.5 14 Noroeste 19 Noroeste 0 -- -- 57
2020-05-29 00:00:00 21.1 8 Noroeste 23 Nordeste 0 -- -- 62
2020-05-28 23:00:00 22 19 Norte 29 Nordeste 0 -- -- 70
2020-05-28 22:00:00 21.7 16 Nordeste 28 Nordeste 0 -- -- 77
2020-05-28 21:00:00 22.1 9 Nordeste 23 Nordeste 0 -- -- 74
2020-05-28 20:00:00 22.7 20 Nordeste 31 Nordeste 0 -- -- 74
2020-05-28 19:00:00 23.3 24 Nordeste 32 Norte 0 -- -- 70
2020-05-28 18:00:00 23.5 23 Nordeste 29 Nordeste 0 -- -- 70
2020-05-28 17:00:00 24.6 12 Nordeste 19 Nordeste 0 -- -- 68
2020-05-28 16:00:00 24.3 11 Nordeste 32 Norte 0 -- -- 69
2020-05-28 15:00:00 23.7 16 Nordeste 29 Nordeste 0 -- -- 68
2020-05-28 14:00:00 23.8 12 Norte 28 Nordeste 0 -- -- 68
2020-05-28 13:00:00 23.6 22 Nordeste 30 Nordeste 0 -- -- 67
2020-05-28 12:00:00 23.4 17 Nordeste 26 Norte 0 -- -- 69
2020-05-28 11:00:00 22.8 18 Nordeste 26 Nordeste 0 -- -- 67
2020-05-28 10:00:00 22.8 17 Norte 28 Norte 0 -- -- 60
2020-05-28 09:00:00 21.8 17 Norte 31 Noroeste 0 -- -- 54
2020-05-28 08:00:00 20.2 17 Noroeste 29 Noroeste 0 -- -- 60
2020-05-28 07:00:00 19.7 17 Norte 27 Norte 0 -- -- 64
2020-05-28 06:00:00 20 15 Norte 22 Noroeste 0 -- -- 65
2020-05-28 05:00:00 19.8 15 Noroeste 26 Norte 0 -- -- 70
2020-05-28 04:00:00 19.9 15 Norte 24 Norte 0 -- -- 75
2020-05-28 03:00:00 20.1 14 Norte 22 Norte 0 -- -- 75
2020-05-28 02:00:00 20.4 12 Norte 25 Norte 0 -- -- 73
2020-05-28 01:00:00 21.2 18 Norte 36 Nordeste 0 -- -- 74
2020-05-28 00:00:00 21.3 26 Norte 35 Nordeste 0 -- -- 78
2020-05-27 23:00:00 21.5 23 Nordeste 36 Nordeste 0 -- -- 83
2020-05-27 22:00:00 21.3 17 Nordeste 27 Nordeste 0 -- -- 84
2020-05-27 21:00:00 22 4 Norte 10 Nordeste 0 -- -- 81
2020-05-27 20:00:00 22.9 6 Nordeste 23 Nordeste 0 -- -- 79
2020-05-27 19:00:00 22.1 24 Nordeste 49 Este 0 -- -- 78
2020-05-27 18:00:00 22.9 37 Este 46 Este 0 -- -- 72
2020-05-27 17:00:00 22.6 22 Nordeste 30 Este 0 -- -- 74
2020-05-27 16:00:00 23.8 13 Nordeste 36 Nordeste 0 -- -- 71
2020-05-27 15:00:00 22.8 22 Nordeste 32 Nordeste 0 -- -- 75
2020-05-27 14:00:00 22.8 24 Nordeste 33 Nordeste 0 -- -- 73
2020-05-27 13:00:00 23.7 17 Nordeste 29 Norte 0 -- -- 69
2020-05-27 12:00:00 23.8 20 Nordeste 30 Nordeste 0 -- -- 67
2020-05-27 11:00:00 23.4 20 Nordeste 32 Nordeste 0 -- -- 65
2020-05-27 10:00:00 23.4 17 Nordeste 26 Noroeste 0 -- -- 62
2020-05-27 09:00:00 22.2 17 Norte 27 Norte 0 -- -- 57
2020-05-27 08:00:00 19.2 10 Noroeste 21 Noroeste 0 -- -- 68
2020-05-27 07:00:00 19.5 14 Noroeste 21 Noroeste 0 -- -- 68
2020-05-27 06:00:00 19.6 13 Noroeste 21 Noroeste 0 -- -- 68
2020-05-27 05:00:00 20.4 17 Noroeste 23 Noroeste 0 -- -- 65
2020-05-27 04:00:00 19.9 14 Noroeste 25 Noroeste 0 -- -- 69
2020-05-27 03:00:00 20.6 15 Noroeste 29 Noroeste 0 -- -- 69
2020-05-27 02:00:00 21 18 Noroeste 25 Noroeste 0 -- -- 70
2020-05-27 01:00:00 21 17 Noroeste 23 Noroeste 0 -- -- 70
2020-05-27 00:00:00 21.4 12 Noroeste 24 Norte 0 -- -- 69
2020-05-26 23:00:00 21.6 19 Nordeste 30 Nordeste 0 -- -- 85
2020-05-26 22:00:00 21.3 21 Nordeste 42 Nordeste 0 -- -- 86
2020-05-26 21:00:00 21.3 31 Nordeste 40 Nordeste 0 -- -- 88
2020-05-26 20:00:00 22.2 21 Nordeste 36 Nordeste 0 -- -- 85
2020-05-26 19:00:00 22.2 29 Nordeste 37 Nordeste 0 -- -- 83
2020-05-26 18:00:00 22.2 34 Nordeste 45 Este 0 -- -- 80
2020-05-26 17:00:00 22.4 31 Nordeste 39 Nordeste 0 -- -- 81
2020-05-26 16:00:00 22.5 26 Nordeste 36 Nordeste 0 -- -- 79
2020-05-26 15:00:00 22.4 33 Nordeste 39 Nordeste 0 -- -- 79
2020-05-26 14:00:00 22.6 27 Este 34 Nordeste 0 -- -- 78
2020-05-26 13:00:00 23.1 27 Nordeste 32 Este 0 -- -- 73
2020-05-26 12:00:00 23.5 24 Nordeste 31 Nordeste 0 -- -- 66
2020-05-26 11:00:00 23.2 19 Nordeste 26 Nordeste 0 -- -- 64
2020-05-26 10:00:00 22.9 11 Norte 18 Norte 0 -- -- 53
2020-05-26 09:00:00 21.6 10 Norte 15 Noroeste 0 -- -- 53
2020-05-26 08:00:00 19.4 5 Noroeste 17 Noroeste 0 -- -- 62
2020-05-26 07:00:00 19 10 Noroeste 18 Noroeste 0 -- -- 65
2020-05-26 06:00:00 18.4 12 Noroeste 19 Noroeste 0 -- -- 69
2020-05-26 05:00:00 18.5 13 Noroeste 19 Noroeste 0 -- -- 70
2020-05-26 04:00:00 18.8 10 Noroeste 17 Noroeste 0 -- -- 69
2020-05-26 03:00:00 18.8 12 Noroeste 19 Noroeste 0 -- -- 69
2020-05-26 02:00:00 18.7 10 Noroeste 16 Oeste 0 -- -- 70
2020-05-26 01:00:00 19.2 9 Oeste 12 Noroeste 0 -- -- 70
2020-05-26 00:00:00 20.2 7 Noroeste 9 Oeste 0 -- -- 68
2020-05-25 23:00:00 21.2 4 Noroeste 14 Nordeste 0 -- -- 65
2020-05-25 22:00:00 21.3 9 Nordeste 18 Nordeste 0 -- -- 74
2020-05-25 21:00:00 21.5 9 Nordeste 37 Nordeste 0 -- -- 74
2020-05-25 20:00:00 21.7 34 Este 42 Este 0 -- -- 73
2020-05-25 19:00:00 22.3 33 Este 43 Nordeste 0 -- -- 73
2020-05-25 18:00:00 22.8 29 Este 39 Este 0 -- -- 70
2020-05-25 17:00:00 22.5 36 Este 41 Nordeste 0 -- -- 76
2020-05-25 16:00:00 23.2 30 Este 35 Este 0 -- -- 73
2020-05-25 15:00:00 23.7 19 Nordeste 25 Nordeste 0 -- -- 68
2020-05-25 14:00:00 24.3 15 Nordeste 22 Nordeste 0 -- -- 58
2020-05-25 13:00:00 24 15 Nordeste 23 Nordeste 0 -- -- 59
2020-05-25 12:00:00 23.8 12 Nordeste 22 Nordeste 0 -- -- 63
2020-05-25 11:00:00 22.8 9 Nordeste 12 Nordeste 0 -- -- 66
2020-05-25 10:00:00 22.2 8 Norte 16 Noroeste 0 -- -- 61
2020-05-25 09:00:00 19 13 Noroeste 20 Noroeste 0 -- -- 70
2020-05-25 08:00:00 18.3 14 Noroeste 19 Noroeste 0 -- -- 74
2020-05-25 07:00:00 18.1 10 Noroeste 15 Noroeste 0 -- -- 77
2020-05-25 06:00:00 17.9 13 Noroeste 17 Noroeste 0 -- -- 79
2020-05-25 05:00:00 18.3 14 Noroeste 20 Noroeste 0 -- -- 77
2020-05-25 04:00:00 19.2 12 Noroeste 16 Oeste 0 -- -- 75
2020-05-25 03:00:00 18.8 9 Noroeste 16 Noroeste 0 -- -- 78
2020-05-25 02:00:00 19.4 9 Noroeste 16 Noroeste 0 -- -- 79
2020-05-25 01:00:00 19.6 12 Oeste 17 Oeste 0 -- -- 86
2020-05-25 00:00:00 20 11 Noroeste 21 Nordeste 0 -- -- 87
2020-05-24 23:00:00 21 15 Nordeste 27 Nordeste 0 -- -- 88
2020-05-24 22:00:00 21 14 Nordeste 21 Nordeste 0 -- -- 88
2020-05-24 21:00:00 22 12 Nordeste 19 Nordeste 0 -- -- 81
2020-05-24 20:00:00 23.5 8 Nordeste 14 Nordeste 0 -- -- 75
2020-05-24 19:00:00 23.7 6 Este 17 Este 0 -- -- 75
2020-05-24 18:00:00 23.2 9 Nordeste 38 Nordeste 0 -- -- 76
2020-05-24 17:00:00 23 34 Este 41 Nordeste 0 -- -- 76
2020-05-24 16:00:00 23.3 35 Este 41 Este 0 -- -- 76
2020-05-24 15:00:00 23.2 27 Nordeste 39 Este 0 -- -- 73
2020-05-24 14:00:00 23.1 31 Este 40 Nordeste 0 -- -- 74
2020-05-24 13:00:00 23.1 34 Nordeste 40 Nordeste 0 -- -- 72
2020-05-24 12:00:00 23 31 Nordeste 39 Nordeste 0 -- -- 74
2020-05-24 11:00:00 23.4 17 Nordeste 30 Nordeste 0 -- -- 72
2020-05-24 10:00:00 23.2 21 Nordeste 30 Nordeste 0 -- -- 67
2020-05-24 09:00:00 22.8 11 Norte 19 Norte 0 -- -- 54
2020-05-24 08:00:00 19.7 12 Noroeste 21 Noroeste 0 -- -- 64
2020-05-24 07:00:00 19.2 15 Noroeste 21 Noroeste 0 -- -- 64
2020-05-24 06:00:00 19.5 10 Noroeste 21 Noroeste 0 -- -- 64
2020-05-24 05:00:00 20.1 12 Noroeste 16 Noroeste 0 -- -- 61
2020-05-24 04:00:00 20.8 12 Noroeste 16 Noroeste 0 -- -- 57
2020-05-24 03:00:00 20.9 8 Noroeste 16 Noroeste 0 -- -- 60
2020-05-24 02:00:00 20.8 9 Noroeste 14 Oeste 0 -- -- 60
2020-05-24 01:00:00 22 12 Oeste 14 Oeste 0 -- -- 57
2020-05-24 00:00:00 21.7 8 Noroeste 13 Oeste 0 -- -- 64
2020-05-23 23:00:00 23.6 5 Noroeste 9 Noroeste 0 -- -- 53
2020-05-23 22:00:00 23.2 4 Noroeste 6 Noroeste 0 -- -- 63
2020-05-23 21:00:00 23.6 3 Nordeste 6 Norte 0 -- -- 71
2020-05-23 20:00:00 24.2 4 Nordeste 12 Nordeste 0 -- -- 70
2020-05-23 19:00:00 25.2 10 Este 13 Este 0 -- -- 69
2020-05-23 18:00:00 25 11 Este 12 Este 0 -- -- 72
2020-05-23 17:00:00 25.1 8 Nordeste 11 Este 0 -- -- 70
2020-05-23 16:00:00 24.8 8 Este 13 Sudeste 0 -- -- 70
2020-05-23 15:00:00 23.8 10 Sudeste 16 Sudeste 0 -- -- 73
2020-05-23 14:00:00 24.3 12 Sudeste 15 Sudeste 0 -- -- 68
2020-05-23 13:00:00 24.7 4 Sudeste 12 Sudeste 0 -- -- 64
2020-05-23 12:00:00 25.2 7 Este 9 Este 0 -- -- 59
2020-05-23 11:00:00 25.9 6 Nordeste 8 Nordeste 0 -- -- 62
2020-05-23 10:00:00 24.4 4 Nordeste 14 Norte 0 -- -- 68
2020-05-23 09:00:00 22.6 9 Noroeste 17 Noroeste 0 -- -- 62
2020-05-23 08:00:00 19.7 12 Noroeste 24 Oeste 0 -- -- 73
2020-05-23 07:00:00 18.6 15 Noroeste 20 Noroeste 0 -- -- 75
2020-05-23 06:00:00 19.3 14 Noroeste 18 Oeste 0 -- -- 73
2020-05-23 05:00:00 20 14 Noroeste 19 Noroeste 0 -- -- 72
2020-05-23 04:00:00 20.2 13 Noroeste 18 Oeste 0 -- -- 72
2020-05-23 03:00:00 20.5 12 Oeste 15 Oeste 0 -- -- 71
2020-05-23 02:00:00 20.7 10 Noroeste 14 Oeste 0 -- -- 69
2020-05-23 01:00:00 21.2 11 Oeste 17 Oeste 0 -- -- 70
2020-05-23 00:00:00 21.9 8 Oeste 15 Oeste 0 -- -- 76
2020-05-22 23:00:00 22.2 6 Oeste 9 Oeste 0 -- -- 71
2020-05-22 22:00:00 22.2 4 Norte 9 Nordeste 0 -- -- 82
2020-05-22 21:00:00 23.7 4 Nordeste 12 Nordeste 0 -- -- 82
2020-05-22 20:00:00 24.3 11 Nordeste 16 Nordeste 0 -- -- 83
2020-05-22 19:00:00 24.3 13 Nordeste 21 Este 0 -- -- 81
2020-05-22 18:00:00 23.9 18 Este 23 Este 0 -- -- 84
2020-05-22 17:00:00 22.7 20 Este 25 Este 0 -- -- 89
2020-05-22 16:00:00 22.6 20 Este 23 Este 0 -- -- 88
2020-05-22 15:00:00 22.4 12 Sudeste 14 Sudeste 0 -- -- 86
2020-05-22 14:00:00 21.9 11 Sudeste 15 Sudeste 0 -- -- 91
2020-05-22 13:00:00 22.7 13 Sudeste 15 Sudeste 0 -- -- 88
2020-05-22 12:00:00 22.4 10 Este 15 Este 0 -- -- 89
2020-05-22 11:00:00 23.3 14 Nordeste 17 Nordeste 0 -- -- 84
2020-05-22 10:00:00 23.2 10 Nordeste 12 Nordeste 0 -- -- 83
2020-05-22 09:00:00 22 5 Norte 13 Oeste 0 -- -- 83
2020-05-22 08:00:00 19.8 7 Noroeste 11 Oeste 0 -- -- 77
2020-05-22 07:00:00 19.6 5 Oeste 9 Oeste 0 -- -- 81
2020-05-22 06:00:00 19.7 4 Oeste 10 Sudoeste 0 -- -- 78
2020-05-22 05:00:00 19.7 0 Calma 6 Oeste 0 -- -- 78
2020-05-22 04:00:00 20.2 3 Noroeste 4 Sudoeste 0 -- -- 78
2020-05-22 03:00:00 19.8 3 Oeste 6 Oeste 0 -- -- 87
2020-05-22 02:00:00 20.3 3 Noroeste 6 Oeste 0 -- -- 93
2020-05-22 01:00:00 20.7 3 Noroeste 4 Nordeste 0 -- -- 94
2020-05-22 00:00:00 21.5 0 Calma 4 Nordeste 0 -- -- 93
2020-05-21 23:00:00 21.8 0 Calma 5 Este 0 -- -- 92
2020-05-21 22:00:00 22.1 0 Calma 6 Nordeste 0 -- -- 89
2020-05-21 21:00:00 23.3 4 Nordeste 8 Nordeste 0 -- -- 83
2020-05-21 20:00:00 24.9 5 Nordeste 8 Nordeste 0 -- -- 78
2020-05-21 19:00:00 24.7 4 Nordeste 10 Nordeste 0 -- -- 80
2020-05-21 18:00:00 22.3 8 Este 14 Este 0 -- -- 90
2020-05-21 17:00:00 22.2 12 Este 16 Este 0 -- -- 88
2020-05-21 16:00:00 21.5 14 Sudeste 17 Sudeste 0 -- -- 91
2020-05-21 15:00:00 21.1 13 Sudeste 17 Sudeste 0 -- -- 92
2020-05-21 14:00:00 20.9 14 Sudeste 21 Este 0 -- -- 93
2020-05-21 13:00:00 21.5 17 Sudeste 18 Sudeste 0 -- -- 89
2020-05-21 12:00:00 21.8 10 Sudeste 11 Sudeste 0 -- -- 85
2020-05-21 11:00:00 22.2 7 Sudeste 9 Sudeste 0 -- -- 82
2020-05-21 10:00:00 21.9 9 Este 9 Este 0 -- -- 74
2020-05-21 09:00:00 23.7 0 Calma 5 Sudoeste 0 -- -- 63
2020-05-21 08:00:00 20.4 3 Oeste 7 Oeste 0 -- -- 72
2020-05-21 07:00:00 19.4 3 Oeste 8 Oeste 0 -- -- 72
2020-05-21 06:00:00 19.9 2 Oeste 6 Sudoeste 0 -- -- 69
2020-05-21 05:00:00 20.6 3 Noroeste 5 Oeste 0 -- -- 66
2020-05-21 04:00:00 21.4 6 Noroeste 12 Oeste 0 -- -- 58
2020-05-21 03:00:00 21.2 6 Sudoeste 9 Sudoeste 0 -- -- 56
2020-05-21 02:00:00 20.9 3 Norte 17 Oeste 0 -- -- 68
2020-05-21 01:00:00 20.7 8 Oeste 13 Oeste 0 -- -- 71
2020-05-21 00:00:00 21.4 6 Oeste 10 Oeste 0 -- -- 73
2020-05-20 23:00:00 21.7 4 Oeste 8 Noroeste 0 -- -- 75
2020-05-20 22:00:00 21 3 Norte 8 Nordeste 0 -- -- 86
2020-05-20 21:00:00 21.7 7 Nordeste 14 Nordeste 0 -- -- 85
2020-05-20 20:00:00 23.4 7 Nordeste 16 Nordeste 0 -- -- 80
2020-05-20 19:00:00 23.8 11 Nordeste 15 Este 0 -- -- 77
2020-05-20 18:00:00 23.6 8 Nordeste 11 Este 0 -- -- 77
2020-05-20 17:00:00 22.8 9 Este 17 Este 0 -- -- 84
2020-05-20 16:00:00 22.8 15 Este 19 Este 0 -- -- 83
2020-05-20 15:00:00 21.9 13 Este 15 Este 0 -- -- 83
2020-05-20 14:00:00 21.5 13 Este 18 Este 0 -- -- 87
2020-05-20 13:00:00 21.6 15 Este 18 Este 0 -- -- 85
2020-05-20 12:00:00 22.7 13 Nordeste 20 Nordeste 0 -- -- 76
2020-05-20 11:00:00 21 7 Sudeste 17 Sudeste 0 -- -- 79
2020-05-20 10:00:00 23.1 5 Norte 13 Oeste 0 -- -- 56
2020-05-20 09:00:00 22 10 Noroeste 15 Oeste 0 -- -- 57
2020-05-20 08:00:00 20.4 5 Sudoeste 8 Sudoeste 0 -- -- 60
2020-05-20 07:00:00 18.9 5 Oeste 12 Oeste 0 -- -- 65
2020-05-20 06:00:00 18.5 4 Oeste 9 Oeste 0 -- -- 71
2020-05-20 05:00:00 18.3 3 Oeste 5 Oeste 0 -- -- 78
2020-05-20 04:00:00 18.6 0 Calma 8 Sudoeste 0 -- -- 78
2020-05-20 03:00:00 18.9 3 Oeste 7 Oeste 0 -- -- 79
2020-05-20 02:00:00 19.1 0 Calma 8 Sudoeste 0 -- -- 79
2020-05-20 01:00:00 19.3 2 Oeste 6 Noroeste 0 -- -- 78
2020-05-20 00:00:00 20.1 0 Calma 7 Noroeste 0 -- -- 78
2020-05-19 23:00:00 20.3 4 Noroeste 11 Noroeste 0 -- -- 77
2020-05-19 22:00:00 20.6 11 Nordeste 33 Nordeste 0 -- -- 78
2020-05-19 21:00:00 20.8 21 Nordeste 28 Nordeste 0 -- -- 78
2020-05-19 20:00:00 21.7 14 Nordeste 20 Norte 0 -- -- 77
2020-05-19 19:00:00 21.8 4 Este 27 Sur 0 -- -- 76
2020-05-19 18:00:00 21 13 Este 41 Sur 0 -- -- 79
2020-05-19 17:00:00 20 30 Sur 41 Sur 0 -- -- 83
2020-05-19 16:00:00 20.2 19 Este 23 Este 0 -- -- 82
2020-05-19 15:00:00 19.7 21 Sudeste 25 Sudeste 0 -- -- 85
2020-05-19 14:00:00 19.7 20 Sudeste 23 Sudeste 0 -- -- 86
2020-05-19 13:00:00 19.8 19 Sudeste 22 Sudeste 0 -- -- 85
2020-05-19 12:00:00 19.6 13 Sudeste 15 Sudeste 0 -- -- 83
2020-05-19 11:00:00 20.5 11 Este 14 Sudeste 0 -- -- 76
2020-05-19 10:00:00 20.4 6 Sudeste 8 Sudeste 0 -- -- 68
2020-05-19 09:00:00 20 4 Noroeste 12 Noroeste 0 -- -- 65
2020-05-19 08:00:00 17.2 5 Noroeste 11 Noroeste 0 -- -- 74
2020-05-19 07:00:00 16.6 6 Noroeste 13 Noroeste 0 -- -- 75
2020-05-19 06:00:00 18 7 Noroeste 13 Noroeste 0 -- -- 70
2020-05-19 05:00:00 18.9 5 Noroeste 10 Noroeste 0 -- -- 69
2020-05-19 04:00:00 18.9 5 Noroeste 13 Noroeste 0 -- -- 72
2020-05-19 03:00:00 20.1 8 Oeste 14 Oeste 0 -- -- 58
2020-05-19 02:00:00 20.3 10 Oeste 28 Sudoeste 0 -- -- 58
2020-05-19 01:00:00 21.4 12 Oeste 21 Oeste 0 -- -- 53
2020-05-19 00:00:00 21.1 10 Sur 13 Sur 0 -- -- 54
2020-05-18 23:00:00 22.1 6 Sudeste 10 Sudeste 0 -- -- 55
2020-05-18 22:00:00 22.2 2 Sudeste 20 Sur 0 -- -- 58
2020-05-18 21:00:00 23 16 Sur 35 Sudeste 0 -- -- 56
2020-05-18 20:00:00 22.3 22 Sudeste 38 Sur 0 -- -- 62
2020-05-18 19:00:00 23.6 31 Sudeste 44 Sur 0 -- -- 58
2020-05-18 18:00:00 20.4 35 Sudeste 42 Sudeste 0 -- -- 78
2020-05-18 17:00:00 20.4 34 Sudeste 39 Sudeste 0 -- -- 79
2020-05-18 16:00:00 20.3 33 Sudeste 37 Sur 0 -- -- 79
2020-05-18 15:00:00 19.7 30 Sur 39 Sudeste 0 -- -- 84
2020-05-18 14:00:00 18.9 31 Sur 36 Sur 0 -- -- 89
2020-05-18 13:00:00 18.8 26 Sur 31 Sur 0 -- -- 88
2020-05-18 12:00:00 18.5 21 Sudeste 23 Sudeste 0 -- -- 87
2020-05-18 11:00:00 18.1 15 Sudeste 18 Sudeste 0 -- -- 86
2020-05-18 10:00:00 18.5 6 Sudeste 8 Sudeste 0 -- -- 73
2020-05-18 09:00:00 18.1 2 Noroeste 8 Sudoeste 0 -- -- 74
2020-05-18 08:00:00 15.9 8 Sudoeste 13 Oeste 0 -- -- 81
2020-05-18 07:00:00 15.1 3 Noroeste 12 Oeste 0 -- -- 84
2020-05-18 06:00:00 15.5 7 Sudoeste 11 Sudoeste 0 -- -- 86
2020-05-18 05:00:00 16 7 Oeste 17 Oeste 0 -- -- 84
2020-05-18 04:00:00 16.5 11 Oeste 15 Oeste 0 -- -- 80
2020-05-18 03:00:00 16.7 6 Oeste 14 Oeste 0 -- -- 79
2020-05-18 02:00:00 17.6 8 Oeste 10 Oeste 0 -- -- 76
2020-05-18 01:00:00 17.9 4 Noroeste 16 Oeste 0 -- -- 79
2020-05-18 00:00:00 18.3 12 Oeste 18 Oeste 0 -- -- 75
2020-05-17 23:00:00 18 8 Oeste 24 Sudeste 0 -- -- 77
2020-05-17 22:00:00 18.5 21 Sudeste 28 Sudeste 0 -- -- 81
2020-05-17 21:00:00 18.9 24 Sudeste 31 Sur 0 -- -- 78
2020-05-17 20:00:00 18.5 27 Sur 32 Sur 0 -- -- 85
2020-05-17 19:00:00 19 26 Sur 32 Sur 0 -- -- 82
2020-05-17 18:00:00 19.1 17 Sudeste 24 Sur 0 -- -- 84
2020-05-17 17:00:00 19.3 18 Sudeste 21 Sudeste 0 -- -- 86
2020-05-17 16:00:00 19.2 14 Sudeste 18 Sudeste 0 -- -- 88
2020-05-17 15:00:00 18.9 14 Sudeste 18 Sudeste 0 -- -- 87
2020-05-17 14:00:00 19.1 17 Sudeste 23 Sudeste 0 -- -- 85
2020-05-17 13:00:00 19.2 12 Sudeste 14 Sudeste 0 -- -- 82
2020-05-17 12:00:00 19.2 9 Este 14 Este 0 -- -- 83
2020-05-17 11:00:00 19.3 8 Este 9 Este 0 -- -- 81
2020-05-17 10:00:00 18.8 3 Este 7 Noroeste 0 -- -- 77
2020-05-17 09:00:00 17.6 5 Noroeste 10 Oeste 0 -- -- 74
2020-05-17 08:00:00 16.2 4 Noroeste 12 Sudoeste 0 -- -- 79
2020-05-17 07:00:00 15.3 9 Sudoeste 12 Sudoeste 0 -- -- 83
2020-05-17 06:00:00 15.4 6 Oeste 14 Oeste 0 -- -- 84
2020-05-17 05:00:00 16 9 Oeste 14 Oeste 0 -- -- 81
2020-05-17 04:00:00 15.8 10 Oeste 17 Oeste 0 -- -- 85
2020-05-17 03:00:00 16.4 8 Oeste 14 Oeste 0 -- -- 83
2020-05-17 02:00:00 17.1 10 Oeste 12 Oeste 0 -- -- 81
2020-05-17 01:00:00 17.7 7 Oeste 10 Oeste 0 -- -- 78
2020-05-17 00:00:00 17.9 9 Sudoeste 15 Sudoeste 0 -- -- 80
2020-05-16 23:00:00 18.1 11 Sur 15 Sur 0 -- -- 89
2020-05-16 22:00:00 18 12 Sur 17 Sudeste 0 -- -- 88
2020-05-16 21:00:00 18.3 14 Sudeste 17 Este 0 -- -- 85
2020-05-16 20:00:00 18.3 14 Este 20 Sur 0 -- -- 81
2020-05-16 19:00:00 18.4 18 Sur 22 Sudeste 0 -- -- 85
2020-05-16 18:00:00 19 21 Sudeste 29 Sudeste 0 -- -- 86
2020-05-16 17:00:00 19.2 26 Sudeste 29 Sudeste 0 -- -- 81
2020-05-16 16:00:00 19.3 21 Sur 23 Sudeste 0 -- -- 75
2020-05-16 15:00:00 19.3 17 Sur 19 Sur 0 -- -- 71
2020-05-16 14:00:00 19.3 13 Sudeste 15 Este 0 -- -- 75
2020-05-16 13:00:00 20.5 9 Este 16 Nordeste 0 -- -- 70
2020-05-16 12:00:00 20.8 12 Nordeste 22 Norte 0 -- -- 67
2020-05-16 11:00:00 19.8 7 Norte 15 Noroeste 0 -- -- 70
2020-05-16 10:00:00 19 11 Noroeste 18 Noroeste 0 -- -- 64
2020-05-16 09:00:00 17.1 14 Noroeste 18 Oeste 0 -- -- 74
2020-05-16 08:00:00 15.4 12 Noroeste 16 Noroeste 0 -- -- 81
2020-05-16 07:00:00 15.2 9 Noroeste 12 Noroeste 0 -- -- 82
2020-05-16 06:00:00 15.3 9 Noroeste 13 Oeste 0 -- -- 84
2020-05-16 05:00:00 15.4 13 Oeste 18 Oeste 0 -- -- 82
2020-05-16 04:00:00 15.2 13 Oeste 19 Oeste 0 -- -- 82
2020-05-16 03:00:00 15.4 12 Oeste 17 Oeste 0 -- -- 80
2020-05-16 02:00:00 15.4 10 Noroeste 17 Oeste 0 -- -- 81
2020-05-16 01:00:00 16 12 Oeste 15 Oeste 0 -- -- 77
2020-05-16 00:00:00 16.6 12 Oeste 17 Oeste 0 -- -- 74
2020-05-15 23:00:00 16.7 11 Noroeste 14 Oeste 0 -- -- 75
2020-05-15 22:00:00 17.3 10 Noroeste 19 Norte 0 -- -- 74
2020-05-15 21:00:00 18.2 12 Norte 18 Norte 0 -- -- 72
2020-05-15 20:00:00 18.5 5 Norte 8 Noroeste 0 -- -- 77
2020-05-15 19:00:00 18.6 6 Este 10 Este 0 -- -- 77
2020-05-15 18:00:00 18.8 8 Sudeste 14 Sur 0 -- -- 76
2020-05-15 17:00:00 18 10 Sur 12 Sur 0 -- -- 83
2020-05-15 16:00:00 19.7 5 Este 12 Sur 0 -- -- 66
2020-05-15 15:00:00 19.3 8 Oeste 19 Oeste 0 -- -- 65
2020-05-15 14:00:00 18.1 15 Sudoeste 22 Sudoeste 0 -- -- 69
2020-05-15 13:00:00 18 15 Sudoeste 22 Sudoeste 0 -- -- 65
2020-05-15 12:00:00 17.6 10 Oeste 17 Sudoeste 0 -- -- 69
2020-05-15 11:00:00 17 13 Sudoeste 17 Sudoeste 0 -- -- 78
2020-05-15 10:00:00 16.5 10 Oeste 17 Oeste 0 -- -- 79
2020-05-15 09:00:00 16.1 9 Oeste 18 Sudoeste 0 -- -- 79
2020-05-15 08:00:00 16.4 11 Oeste 17 Oeste 0 -- -- 68
2020-05-15 07:00:00 15.9 12 Oeste 27 Oeste 0 -- -- 75
2020-05-15 06:00:00 16.4 12 Sudoeste 15 Sudoeste 0 -- -- 69
2020-05-15 05:00:00 16.6 5 Norte 10 Norte 0 -- -- 75
2020-05-15 04:00:00 17 9 Sur 27 Este 0 -- -- 76
2020-05-15 03:00:00 17.7 11 Sudoeste 22 Noroeste 0 -- -- 60
2020-05-15 02:00:00 18.1 10 Oeste 22 Oeste 0 -- -- 54
2020-05-15 01:00:00 17.4 8 Oeste 19 Sudoeste 0 -- -- 57
2020-05-15 00:00:00 19.1 6 Sudoeste 17 Sur 0 -- -- 52
2020-05-14 23:00:00 19.6 7 Sur 14 Sur 0 -- -- 56
2020-05-14 22:00:00 19.4 4 Noroeste 24 Sudoeste 0 -- -- 53
2020-05-14 21:00:00 20.7 17 Sudoeste 28 Sudoeste 0 -- -- 47
2020-05-14 20:00:00 21.8 5 Sur 38 Sudeste 0 -- -- 51
2020-05-14 19:00:00 20.1 32 Sur 45 Sur 0 -- -- 55
2020-05-14 18:00:00 20.1 33 Sudeste 39 Sudeste 0 -- -- 60
2020-05-14 17:00:00 20.4 16 Sudeste 26 Este 0 -- -- 63
2020-05-14 16:00:00 21.3 11 Nordeste 22 Norte 0 -- -- 67
2020-05-14 15:00:00 19.7 16 Nordeste 23 Nordeste 0 -- -- 66
2020-05-14 14:00:00 19.5 8 Nordeste 22 Nordeste 0 -- -- 62
2020-05-14 13:00:00 17.9 20 Este 25 Sudeste 0 -- -- 69
2020-05-14 12:00:00 19.1 10 Nordeste 12 Este 0 -- -- 69
2020-05-14 11:00:00 18.3 2 Sudeste 9 Este 0 -- -- 74
2020-05-14 10:00:00 16.5 6 Sur 19 Sudeste 0 -- -- 78
2020-05-14 09:00:00 15.9 13 Sur 21 Sur 0 -- -- 84
2020-05-14 08:00:00 15 5 Sudoeste 20 Sudoeste 0.4 -- -- 88
2020-05-14 07:00:00 14.9 11 Sudoeste 18 Sudoeste 0.8 -- -- 89
2020-05-14 06:00:00 15.4 15 Sur 28 Sudeste 0.4 -- -- 86
2020-05-14 05:00:00 16.1 10 Sur 20 Noroeste 0 -- -- 82
2020-05-14 04:00:00 16.2 4 Sudeste 30 Sudoeste 0.6 -- -- 78
2020-05-14 03:00:00 16.3 6 Sudoeste 37 Sudoeste 1 -- -- 80
2020-05-14 02:00:00 17 12 Oeste 27 Sudeste 1 -- -- 85
2020-05-14 01:00:00 18.5 3 Sudeste 8 Noroeste 0.2 -- -- 78
2020-05-14 00:00:00 18.1 6 Noroeste 17 Norte 0 -- -- 78
2020-05-13 23:00:00 18.1 10 Norte 17 Nordeste 0 -- -- 84
2020-05-13 22:00:00 18.5 13 Norte 20 Nordeste 0 -- -- 83
2020-05-13 21:00:00 18.9 15 Nordeste 22 Nordeste 0 -- -- 77
2020-05-13 20:00:00 20.9 8 Nordeste 13 Nordeste 0 -- -- 69
2020-05-13 19:00:00 23 5 Este 42 Sudeste 0 -- -- 48
2020-05-13 18:00:00 21.4 20 Sudeste 42 Sudeste 0 -- -- 51
2020-05-13 17:00:00 20.9 29 Sudeste 39 Sur 0 -- -- 57
2020-05-13 16:00:00 19.2 37 Sudeste 48 Sudeste 0 -- -- 67
2020-05-13 15:00:00 18.5 36 Sudeste 42 Sudeste 0 -- -- 76
2020-05-13 14:00:00 18.3 27 Sudeste 35 Sudeste 0 -- -- 78
2020-05-13 13:00:00 18.2 25 Sudeste 31 Sudeste 0 -- -- 77
2020-05-13 12:00:00 18.2 18 Sudeste 20 Sudeste 0 -- -- 68
2020-05-13 11:00:00 17.8 10 Sudeste 14 Sudeste 0 -- -- 69
2020-05-13 10:00:00 17.5 6 Sudeste 12 Sudeste 0 -- -- 76
2020-05-13 09:00:00 16.2 9 Sudoeste 21 Noroeste 0 -- -- 65
2020-05-13 08:00:00 14.5 14 Oeste 20 Sudoeste 0 -- -- 67
2020-05-13 07:00:00 13.7 8 Oeste 20 Sudoeste 0 -- -- 73
2020-05-13 06:00:00 14.4 13 Oeste 21 Sudoeste 0 -- -- 75
2020-05-13 05:00:00 14.5 9 Oeste 23 Sudoeste 0 -- -- 73
2020-05-13 04:00:00 15.1 16 Sudoeste 22 Sudoeste 0 -- -- 64
2020-05-13 03:00:00 17.1 9 Sudoeste 15 Sudoeste 0 -- -- 60
2020-05-13 02:00:00 17.2 11 Oeste 16 Sudoeste 0 -- -- 57
2020-05-13 01:00:00 18 14 Oeste 24 Oeste 0 -- -- 55
2020-05-13 00:00:00 18.5 19 Oeste 31 Oeste 0 -- -- 53
2020-05-12 23:00:00 18.5 8 Oeste 35 Oeste 0 -- -- 58
2020-05-12 22:00:00 19.4 28 Sudoeste 45 Sudoeste 0 -- -- 53
2020-05-12 21:00:00 20.8 22 Sudoeste 32 Sudoeste 0 -- -- 45
2020-05-12 20:00:00 20.6 17 Sur 29 Sur 0 -- -- 57
2020-05-12 19:00:00 22.4 10 Sudoeste 22 Sur 0 -- -- 47
2020-05-12 18:00:00 20.3 21 Sur 28 Noroeste 0 -- -- 76
2020-05-12 17:00:00 21.4 23 Noroeste 34 Oeste 0 -- -- 51
2020-05-12 16:00:00 21.5 22 Noroeste 33 Noroeste 0 -- -- 54
2020-05-12 15:00:00 20.3 3 Noroeste 23 Sur 0 -- -- 77
2020-05-12 14:00:00 19.8 13 Sur 18 Sur 0 -- -- 86
2020-05-12 13:00:00 21.8 10 Este 23 Este 0 -- -- 74
2020-05-12 12:00:00 21.6 6 Nordeste 13 Nordeste 0 -- -- 73
2020-05-12 11:00:00 21.1 8 Norte 16 Nordeste 0 -- -- 77
2020-05-12 10:00:00 20.5 4 Norte 15 Norte 0 -- -- 76
2020-05-12 09:00:00 20.2 8 Norte 16 Nordeste 0 -- -- 76
2020-05-12 08:00:00 19.6 3 Norte 5 Norte 0 -- -- 79
2020-05-12 07:00:00 19.5 3 Noroeste 10 Noroeste 0 -- -- 74
2020-05-12 06:00:00 19.2 8 Noroeste 12 Noroeste 0 -- -- 70
2020-05-12 05:00:00 20.1 5 Noroeste 17 Noroeste 0 -- -- 68
2020-05-12 04:00:00 20 9 Noroeste 13 Oeste 0 -- -- 64
2020-05-12 03:00:00 19.5 4 Sur 18 Sur 0 -- -- 75
2020-05-12 02:00:00 19.4 9 Sur 17 Sur 0 -- -- 69
2020-05-12 01:00:00 20.3 13 Oeste 18 Oeste 0 -- -- 62
2020-05-12 00:00:00 21.1 10 Oeste 22 Sudoeste 0 -- -- 59
2020-05-11 23:00:00 21.5 18 Oeste 32 Sudoeste 0 -- -- 59
2020-05-11 22:00:00 21.5 22 Sudoeste 30 Sudoeste 0 -- -- 60
2020-05-11 21:00:00 23.1 20 Sudoeste 27 Sudoeste 0 -- -- 54
2020-05-11 20:00:00 22.8 13 Sur 26 Sudeste 0 -- -- 62
2020-05-11 19:00:00 22.2 18 Sudeste 31 Sur 0 -- -- 67
2020-05-11 18:00:00 23.4 29 Sur 39 Sur 0 -- -- 58
2020-05-11 17:00:00 23 31 Sur 36 Sur 0 -- -- 58
2020-05-11 16:00:00 22.7 26 Sur 42 Sur 0 -- -- 64
2020-05-11 15:00:00 22 39 Sur 45 Sur 0 -- -- 62
2020-05-11 14:00:00 21.8 31 Sudeste 37 Sudeste 0 -- -- 62
2020-05-11 13:00:00 20.4 27 Sur 32 Sur 0 -- -- 72
2020-05-11 12:00:00 20 18 Sudeste 22 Sudeste 0 -- -- 71
2020-05-11 11:00:00 19.8 18 Sudeste 21 Sudeste 0 -- -- 67
2020-05-11 10:00:00 21.1 11 Sudoeste 19 Sudoeste 0 -- -- 49
2020-05-11 09:00:00 18.6 10 Sudoeste 14 Sudoeste 0 -- -- 60
2020-05-11 08:00:00 16.8 10 Sudoeste 17 Sudoeste 0 -- -- 69
2020-05-11 07:00:00 16.1 12 Sudoeste 19 Sudoeste 0 -- -- 71
2020-05-11 06:00:00 17.8 6 Oeste 14 Oeste 0 -- -- 61
2020-05-11 05:00:00 18.2 8 Oeste 17 Sudoeste 0 -- -- 59
2020-05-11 04:00:00 17 12 Noroeste 21 Noroeste 0 -- -- 66
2020-05-11 03:00:00 17 6 Oeste 17 Oeste 0 -- -- 69
2020-05-11 02:00:00 17.8 15 Oeste 21 Noroeste 0 -- -- 67
2020-05-11 01:00:00 17.7 12 Oeste 17 Sudoeste 0 -- -- 72
2020-05-11 00:00:00 18.6 12 Sudoeste 15 Sudoeste 0 -- -- 68
2020-05-10 23:00:00 19.9 4 Sudoeste 9 Sudeste 0 -- -- 64
2020-05-10 22:00:00 20 7 Sudeste 30 Oeste 0 -- -- 73
2020-05-10 21:00:00 21.3 17 Noroeste 39 Oeste 0 -- -- 48
2020-05-10 20:00:00 22.7 22 Noroeste 46 Noroeste 0 -- -- 44
2020-05-10 19:00:00 22.3 11 Este 23 Sudeste 0 -- -- 65
2020-05-10 18:00:00 21.9 11 Sudoeste 27 Sudeste 0 -- -- 61
2020-05-10 17:00:00 20.7 25 Sur 29 Sur 0 -- -- 67
2020-05-10 16:00:00 22.8 17 Sudoeste 34 Sur 0 -- -- 51
2020-05-10 15:00:00 22.4 20 Sur 33 Sur 0 -- -- 53
2020-05-10 14:00:00 22.2 11 Sur 44 Sudeste 0 -- -- 51
2020-05-10 13:00:00 21.6 21 Sudeste 28 Este 0 -- -- 66
2020-05-10 12:00:00 22.3 15 Oeste 41 Noroeste 0 -- -- 53
2020-05-10 11:00:00 21.6 26 Noroeste 48 Noroeste 0 -- -- 43
2020-05-10 10:00:00 20.4 27 Noroeste 54 Oeste 0 -- -- 48
2020-05-10 09:00:00 20.1 13 Sudoeste 25 Sudoeste 0 -- -- 61
2020-05-10 08:00:00 18.6 13 Oeste 30 Oeste 0 -- -- 73
2020-05-10 07:00:00 18.1 18 Sudoeste 25 Sudoeste 0 -- -- 79
2020-05-10 06:00:00 18.6 18 Sudoeste 25 Sudoeste 0 -- -- 77
2020-05-10 05:00:00 18.2 18 Sudoeste 24 Oeste 0 -- -- 71
2020-05-10 04:00:00 18.5 16 Sudoeste 23 Sudoeste 0 -- -- 76
2020-05-10 03:00:00 18.5 6 Sudoeste 13 Sudoeste 0 -- -- 84
2020-05-10 02:00:00 18.7 6 Oeste 16 Norte 0 -- -- 87
2020-05-10 01:00:00 19.6 8 Nordeste 19 Nordeste 0 -- -- 87
2020-05-10 00:00:00 19.6 12 Nordeste 24 Nordeste 0 -- -- 86
2020-05-09 23:00:00 19.9 17 Nordeste 27 Nordeste 0 -- -- 86
2020-05-09 22:00:00 20.3 17 Nordeste 27 Nordeste 0 -- -- 82
2020-05-09 21:00:00 21.5 10 Norte 33 Sudoeste 0 -- -- 71
2020-05-09 20:00:00 23.6 25 Sur 38 Sur 0 -- -- 40
2020-05-09 19:00:00 23.6 30 Sur 48 Sudeste 0 -- -- 53
2020-05-09 18:00:00 22.8 30 Sudeste 53 Sur 0 -- -- 60
2020-05-09 17:00:00 21.1 36 Sur 47 Sudeste 0 -- -- 77
2020-05-09 16:00:00 20.1 41 Sudeste 54 Sudeste 0 -- -- 83
2020-05-09 15:00:00 19.8 37 Sur 44 Sur 0 -- -- 90
2020-05-09 14:00:00 21.3 18 Este 24 Nordeste 0 -- -- 81
2020-05-09 13:00:00 21 12 Este 16 Este 0 -- -- 84
2020-05-09 12:00:00 20.3 14 Sudeste 18 Sudeste 0 -- -- 87
2020-05-09 11:00:00 20.1 13 Sudeste 16 Sudeste 0 -- -- 86
2020-05-09 10:00:00 20.3 8 Este 11 Este 0 -- -- 81
2020-05-09 09:00:00 19 6 Oeste 19 Oeste 0 -- -- 86
2020-05-09 08:00:00 18.6 10 Oeste 16 Sudoeste 0 -- -- 85
2020-05-09 07:00:00 19.1 3 Norte 20 Sudoeste 0 -- -- 89
2020-05-09 06:00:00 18.5 13 Sudoeste 22 Oeste 0 -- -- 87
2020-05-09 05:00:00 18.6 8 Sudoeste 11 Oeste 0 -- -- 90
2020-05-09 04:00:00 18.9 8 Oeste 12 Oeste 0 -- -- 91
2020-05-09 03:00:00 19.3 4 Norte 15 Este 0 -- -- 91
2020-05-09 02:00:00 19.5 18 Sudeste 26 Sudeste 0 -- -- 91
2020-05-09 01:00:00 20 23 Sudeste 32 Sur 0 -- -- 89
2020-05-09 00:00:00 19.9 12 Oeste 18 Sudoeste 0 -- -- 86
2020-05-08 23:00:00 19.5 8 Norte 12 Norte 0 -- -- 89
2020-05-08 22:00:00 19.6 9 Sudeste 23 Sur 0 -- -- 89
2020-05-08 21:00:00 19.6 17 Sudeste 23 Sudeste 0 -- -- 90
2020-05-08 20:00:00 20.1 11 Este 15 Este 0 -- -- 88
2020-05-08 19:00:00 21.4 13 Este 16 Nordeste 0 -- -- 82
2020-05-08 18:00:00 21.1 11 Este 14 Este 0 -- -- 84
2020-05-08 17:00:00 21.4 12 Este 19 Este 0 -- -- 81
2020-05-08 16:00:00 21.8 16 Este 28 Nordeste 0 -- -- 79
2020-05-08 15:00:00 21.5 20 Nordeste 29 Este 0 -- -- 79
2020-05-08 14:00:00 20.9 26 Este 32 Este 0 -- -- 85
2020-05-08 13:00:00 20.3 22 Este 27 Este 0 -- -- 87
2020-05-08 12:00:00 21.4 15 Nordeste 24 Este 0 -- -- 84
2020-05-08 11:00:00 20.9 18 Nordeste 23 Nordeste 0 -- -- 85
2020-05-08 10:00:00 20.8 11 Este 16 Nordeste 0 -- -- 82
2020-05-08 09:00:00 20.5 13 Nordeste 23 Nordeste 0 -- -- 86
2020-05-08 08:00:00 19.8 17 Nordeste 29 Nordeste 0 -- -- 87
2020-05-08 07:00:00 19.9 14 Nordeste 24 Nordeste 0 -- -- 77
2020-05-08 06:00:00 19 3 Oeste 25 Oeste 0 -- -- 64
2020-05-08 05:00:00 18.6 9 Noroeste 17 Noroeste 0 -- -- 63
2020-05-08 04:00:00 19.9 4 Norte 24 Sudoeste 0 -- -- 59
2020-05-08 03:00:00 19.3 9 Noroeste 14 Noroeste 0 -- -- 61
2020-05-08 02:00:00 19.9 8 Noroeste 16 Norte 0 -- -- 61
2020-05-08 01:00:00 19.9 8 Noroeste 17 Noroeste 0 -- -- 59
2020-05-08 00:00:00 21.1 7 Norte 13 Noroeste 0 -- -- 54
2020-05-07 23:00:00 22.2 8 Noroeste 18 Norte 0 -- -- 52
2020-05-07 22:00:00 21.4 10 Norte 23 Norte 0 -- -- 75
2020-05-07 21:00:00 21.7 17 Norte 32 Nordeste 0 -- -- 71
2020-05-07 20:00:00 21.7 12 Norte 21 Nordeste 0 -- -- 72
2020-05-07 19:00:00 23.4 10 Nordeste 23 Nordeste 0 -- -- 64
2020-05-07 18:00:00 23.3 12 Nordeste 20 Nordeste 0 -- -- 64
2020-05-07 17:00:00 22.9 17 Nordeste 26 Nordeste 0 -- -- 68
2020-05-07 16:00:00 23.2 16 Nordeste 38 Nordeste 0 -- -- 65
2020-05-07 15:00:00 23.4 19 Nordeste 25 Nordeste 0 -- -- 65
2020-05-07 14:00:00 23.6 18 Nordeste 27 Nordeste 0 -- -- 67
2020-05-07 13:00:00 24 14 Nordeste 26 Nordeste 0 -- -- 62
2020-05-07 12:00:00 23.3 14 Norte 22 Nordeste 0 -- -- 69
2020-05-07 11:00:00 22.7 13 Nordeste 22 Norte 0 -- -- 70
2020-05-07 10:00:00 22.5 12 Norte 22 Noroeste 0 -- -- 61
2020-05-07 09:00:00 19.8 11 Noroeste 19 Noroeste 0 -- -- 78
2020-05-07 08:00:00 17.8 9 Noroeste 14 Norte 0 -- -- 83
2020-05-07 07:00:00 18.3 5 Noroeste 10 Noroeste 0 -- -- 86
2020-05-07 06:00:00 19.4 9 Norte 23 Nordeste 0 -- -- 88
2020-05-07 05:00:00 19.1 3 Norte 7 Noroeste 0 -- -- 80
2020-05-07 04:00:00 18.8 5 Noroeste 8 Oeste 0 -- -- 79
2020-05-07 03:00:00 18.9 7 Noroeste 13 Noroeste 0 -- -- 81
2020-05-07 02:00:00 18.7 9 Noroeste 14 Noroeste 0 -- -- 84
2020-05-07 01:00:00 18.6 8 Noroeste 11 Noroeste 0 -- -- 85
2020-05-07 00:00:00 19.8 6 Oeste 9 Oeste 0 -- -- 85
2020-05-06 23:00:00 20 5 Noroeste 6 Noroeste 0 -- -- 85
2020-05-06 22:00:00 20.5 4 Norte 8 Nordeste 0 -- -- 85
2020-05-06 21:00:00 21.1 4 Norte 7 Norte 0 -- -- 84
2020-05-06 20:00:00 22.7 3 Nordeste 6 Norte 0 -- -- 77
2020-05-06 19:00:00 22.6 0 Calma 5 Este 0 -- -- 78
2020-05-06 18:00:00 22.1 4 Este 7 Este 0 -- -- 80
2020-05-06 17:00:00 22.7 6 Nordeste 12 Este 0 -- -- 81
2020-05-06 16:00:00 22.1 9 Este 12 Este 0 -- -- 85
2020-05-06 15:00:00 21.3 9 Este 14 Este 0 -- -- 88
2020-05-06 14:00:00 21.1 13 Sudeste 15 Sudeste 0 -- -- 88
2020-05-06 13:00:00 20.7 13 Sudeste 15 Este 0 -- -- 89
2020-05-06 12:00:00 20.7 10 Este 18 Nordeste 0 -- -- 90
2020-05-06 11:00:00 20.8 14 Nordeste 20 Nordeste 0 -- -- 89
2020-05-06 10:00:00 21.3 8 Norte 12 Nordeste 0 -- -- 83
2020-05-06 09:00:00 21.5 4 Sudoeste 14 Noroeste 0 -- -- 72
2020-05-06 08:00:00 18.2 11 Oeste 14 Oeste 0 -- -- 78
2020-05-06 07:00:00 17.2 12 Noroeste 17 Noroeste 0 -- -- 84
2020-05-06 06:00:00 16.9 11 Oeste 15 Oeste 0 -- -- 92
2020-05-06 05:00:00 17.9 3 Noroeste 10 Oeste 0 -- -- 94
2020-05-06 04:00:00 17.6 3 Noroeste 15 Sudeste 0 -- -- 94
2020-05-06 03:00:00 19.2 14 Sur 15 Sur 0 -- -- 96
2020-05-06 02:00:00 19.1 2 Oeste 6 Noroeste 0 -- -- 95
2020-05-06 01:00:00 19.2 2 Norte 4 Noroeste 0 -- -- 95
2020-05-06 00:00:00 19.6 3 Nordeste 6 Nordeste 0 -- -- 94
2020-05-05 23:00:00 19.8 4 Nordeste 6 Norte 0 -- -- 94
2020-05-05 22:00:00 19.8 4 Nordeste 5 Nordeste 0 -- -- 93
2020-05-05 21:00:00 20.2 0 Calma 8 Este 0 -- -- 91
2020-05-05 20:00:00 20.6 6 Este 12 Este 0 -- -- 90
2020-05-05 19:00:00 20.5 11 Este 19 Este 0 -- -- 91
2020-05-05 18:00:00 20.8 17 Este 20 Sudeste 0 -- -- 90
2020-05-05 17:00:00 20.2 18 Sudeste 23 Sudeste 0 -- -- 92
2020-05-05 16:00:00 20 19 Sudeste 22 Sudeste 0 -- -- 93
2020-05-05 15:00:00 20.5 12 Sudeste 19 Sudeste 0 -- -- 92
2020-05-05 14:00:00 19.8 17 Sudeste 19 Sudeste 0 -- -- 93
2020-05-05 13:00:00 19.8 15 Sudeste 17 Sudeste 0 -- -- 93
2020-05-05 12:00:00 20.6 10 Este 12 Este 0 -- -- 88
2020-05-05 11:00:00 20.5 10 Sudeste 13 Sudeste 0 -- -- 88
2020-05-05 10:00:00 21.4 5 Sudeste 7 Sudeste 0 -- -- 77
2020-05-05 09:00:00 21 6 Sur 8 Sur 0 -- -- 63
2020-05-05 08:00:00 20 4 Sur 10 Sur 0 -- -- 65
2020-05-05 07:00:00 19 8 Oeste 19 Oeste 0 -- -- 65
2020-05-05 06:00:00 19.9 9 Oeste 19 Oeste 0 -- -- 61
2020-05-05 05:00:00 19.8 10 Oeste 15 Oeste 0 -- -- 62
2020-05-05 04:00:00 20.7 8 Noroeste 18 Oeste 0 -- -- 60
2020-05-05 03:00:00 20.6 5 Oeste 13 Noroeste 0 -- -- 59
2020-05-05 02:00:00 20.3 10 Oeste 13 Oeste 0 -- -- 63
2020-05-05 01:00:00 21.5 7 Sudoeste 18 Oeste 0 -- -- 61
2020-05-05 00:00:00 21.3 4 Sudoeste 7 Oeste 0 -- -- 64